KFDK/FDK METAR and TAF weather

Enter ICAO airport designator
Station Type Date Time Source
KFDK METAR 2019/12/13 16:47 UTC NOAA

KFDK 131647Z 03005KT 4SM -RA OVC012 01/M01 A3029


Station Type Date Time Source
KFDK Decoded METAR 2019/12/13 16:47 UTC NOAA

Frederick, Frederick Municipal Airport, MD, United States (KFDK) 39-25-03N 077-22-28W
Dec 13, 2019 - 11:47 AM EST / 2019.12.13 1647 UTC
Wind: from the NNE (030 degrees) at 6 MPH (5 KT):0
Visibility: 4 mile(s):0
Sky conditions: overcast
Weather: light rain
Temperature: 33 F (1 C)
Windchill: 26 F (-3 C):1
Dew Point: 30 F (-1 C)
Relative Humidity: 86%
Pressure (altimeter): 30.29 in. Hg (1025 hPa)
ob: KFDK 131647Z 03005KT 4SM -RA OVC012 01/M01 A3029
cycle: 17

Station Type Date Time Source
KFDK TAF UTC NOAA

Error!

Example: see airport list